Flight Track Log - Related Links

Times and Time Zones

All times are in EDT time to prevent confusion due to time zone crossing. See the DAL1903 flight status page for this flight to view local times or setup timezone preferences in your user account.

Time Position Orientation Groundspeed Altitude Reporting Facility
EDT Latitude Longitude Course Direction KTS MPH feet Rate Location/Type
Wed 11:06:36 AM 40.7500 -73.8333 90° East 187 215 1,400  Level New York TRACON
Wed 11:07:36 AM 40.7500 -73.7833 90° East 249 287 3,600 2,571 Climbing New York TRACON
Wed 11:08:42 AM 40.8167 -73.8500 323° Northwest 240 276 6,800 3,100 Climbing New York TRACON
Wed 11:09:36 AM 40.8500 -73.9167 303° West 248 285 9,800 3,053 Climbing New York TRACON
Wed 11:10:36 AM 40.8667 -74.0000 285° West 261 300 12,600 1,814 Climbing New York TRACON
Wed 11:12:28 AM 40.8233 -74.1658 251° West 274 315 15,000 867 Climbing New York Center
Wed 11:13:29 AM 40.7811 -74.2569 239° Southwest 290 334 15,100 492 Climbing New York Center
Wed 11:14:30 AM 40.7344 -74.3531 237° Southwest 311 358 16,000 958 Climbing New York Center
Wed 11:15:28 AM 40.6856 -74.4492 236° Southwest 317 365 17,000 1,210 Climbing New York Center
Wed 11:16:29 AM 40.6433 -74.5372 238° Southwest 317 365 18,400 1,623 Climbing New York Center
Wed 11:17:30 AM 40.5875 -74.6489 237° Southwest 323 372 20,300 1,780 Climbing New York Center
Wed 11:18:27 AM 40.5319 -74.7550 235° Southwest 341 392 21,900 1,729 Climbing New York Center
Wed 11:19:28 AM 40.4758 -74.8664 237° Southwest 359 413 23,700 1,785 Climbing New York Center
Wed 11:20:28 AM 40.4156 -74.9800 235° Southwest 372 428 25,500 1,537 Climbing New York Center
Wed 11:21:29 AM 40.3433 -75.0817 227° Southwest 383 441 26,800 1,289 Climbing New York Center
Wed 11:22:29 AM 40.2708 -75.1833 227° Southwest 402 463 28,100 1,289 Climbing New York Center
Wed 11:23:30 AM 40.1956 -75.2925 228° Southwest 402 463 29,400 1,271 Climbing New York Center
Wed 11:24:27 AM 40.1164 -75.4042 227° Southwest 414 476 30,600 1,220 Climbing New York Center
Wed 11:25:28 AM 40.0369 -75.5156 227° Southwest 419 482 31,800 1,140 Climbing New York Center
Wed 11:26:28 AM 39.9572 -75.6292 228° Southwest 425 489 32,900 1,041 Climbing New York Center
Wed 11:27:29 AM 39.8817 -75.7431 229° Southwest 430 495 33,900 338 Climbing New York Center
Wed 11:29:43 AM 39.7192 -76.0069 231° Southwest 410 472 34,000 31 Climbing Washington Center
Wed 11:30:43 AM 39.6353 -76.1331 229° Southwest 426 490 34,000  Level Washington Center
Wed 11:31:43 AM 39.5578 -76.2483 229° Southwest 426 490 34,000  Level Washington Center
Wed 11:32:43 AM 39.4842 -76.3606 230° Southwest 426 490 34,000  Level Washington Center
Wed 11:33:43 AM 39.4103 -76.4781 231° Southwest 426 490 34,000  Level Washington Center
Wed 11:34:43 AM 39.3364 -76.5925 230° Southwest 426 490 34,000  Level Washington Center
Wed 11:35:43 AM 39.2647 -76.7094 232° Southwest 426 490 34,000  Level Washington Center
Wed 11:36:43 AM 39.1886 -76.8208 229° Southwest 426 490 34,000  Level Washington Center
Wed 11:37:43 AM 39.1164 -76.9347 231° Southwest 420 483 34,000  Level Washington Center
Wed 11:38:43 AM 39.0358 -77.0428 226° Southwest 425 489 34,000  Level Washington Center
Wed 11:39:43 AM 38.9492 -77.1397 221° Southwest 425 489 34,000  Level Washington Center
Wed 11:40:43 AM 38.8606 -77.2339 220° Southwest 425 489 34,000  Level Washington Center
Wed 11:41:43 AM 38.7694 -77.3331 220° Southwest 425 489 34,000  Level Washington Center
Wed 11:42:43 AM 38.6825 -77.4267 220° Southwest 425 489 34,000  Level Washington Center
Wed 11:43:43 AM 38.5956 -77.5281 222° Southwest 425 489 34,000  Level Washington Center
Wed 11:44:43 AM 38.5064 -77.6267 221° Southwest 425 489 34,000  Level Washington Center
Wed 11:45:43 AM 38.4169 -77.7250 221° Southwest 425 489 34,000  Level Washington Center
Wed 11:46:43 AM 38.3256 -77.8203 219° Southwest 425 489 34,000  Level Washington Center
Wed 11:47:43 AM 38.2361 -77.9181 221° Southwest 425 489 34,000  Level Washington Center
Wed 11:48:43 AM 38.1553 -78.0053 220° Southwest 425 489 34,000  Level Washington Center
Wed 11:49:43 AM 38.0658 -78.1000 220° Southwest 425 489 34,000  Level Washington Center
Wed 11:50:43 AM 37.9656 -78.2047 219° Southwest 425 489 34,000  Level Washington Center
Wed 11:51:43 AM 37.8739 -78.2936 217° Southwest 420 483 34,000  Level Washington Center
Wed 11:52:43 AM 37.7758 -78.3847 216° Southwest 433 498 34,000  Level Washington Center
Wed 11:53:43 AM 37.6819 -78.4703 216° Southwest 433 498 34,000  Level Washington Center
Wed 11:54:43 AM 37.6050 -78.5433 217° Southwest 438 504 34,000  Level Washington Center
Wed 11:55:43 AM 37.4983 -78.6414 216° Southwest 438 504 34,000  Level Washington Center
Wed 11:56:43 AM 37.4044 -78.7292 217° Southwest 438 504 34,000  Level Washington Center
Wed 11:57:43 AM 37.3081 -78.8219 217° Southwest 438 504 34,000  Level Washington Center
Wed 11:58:43 AM 37.2158 -78.9092 217° Southwest 438 504 34,000  Level Washington Center
Wed 11:59:43 AM 37.1111 -79.0036 216° Southwest 433 498 34,000  Level Washington Center
Wed 12:00:43 PM 37.0167 -79.0931 217° Southwest 433 498 34,000  Level Washington Center
Wed 12:01:43 PM 36.9222 -79.1797 216° Southwest 433 498 34,000  Level Washington Center
Wed 12:02:43 PM 36.8300 -79.2664 217° Southwest 428 493 34,000  Level Washington Center
Wed 12:03:43 PM 36.7333 -79.3525 216° Southwest 428 493 34,000  Level Washington Center
Wed 12:04:43 PM 36.6475 -79.4311 216° Southwest 428 493 34,000  Level Washington Center
Wed 12:05:43 PM 36.5528 -79.5194 217° Southwest 428 493 34,000  Level Washington Center
Wed 12:08:27 PM 36.2900 -79.7550 216° Southwest 435 501 34,000  Level Atlanta Center
Wed 12:09:27 PM 36.1950 -79.8400 216° Southwest 430 495 34,000  Level Atlanta Center
Wed 12:10:27 PM 36.0897 -79.9328 215° Southwest 435 501 34,000  Level Atlanta Center
Wed 12:11:27 PM 35.9836 -80.0075 210° Southwest 435 501 34,000  Level Atlanta Center
Wed 12:12:27 PM 35.8728 -80.0589 201° Southwest 429 494 34,000  Level Atlanta Center
Wed 12:13:27 PM 35.7639 -80.1156 203° Southwest 429 494 34,000  Level Atlanta Center
Wed 12:14:27 PM 35.6531 -80.1694 202° Southwest 429 494 34,000  Level Atlanta Center
Wed 12:15:27 PM 35.5464 -80.2256 203° Southwest 424 488 34,000  Level Atlanta Center
Wed 12:16:27 PM 35.4458 -80.2761 202° Southwest 429 494 34,000  Level Atlanta Center
Wed 12:17:27 PM 35.3367 -80.3294 202° Southwest 429 494 34,000  Level Atlanta Center
Wed 12:18:27 PM 35.2278 -80.3850 203° Southwest 429 494 34,000  Level Atlanta Center
Wed 12:20:16 PM 35.0150 -80.4897 202° Southwest 431 496 34,000  Level Jacksonville Center
Wed 12:21:15 PM 34.9036 -80.5436 202° Southwest 431 496 34,000  Level Jacksonville Center
Wed 12:22:15 PM 34.7961 -80.6022 204° Southwest 431 496 34,000  Level Jacksonville Center
Wed 12:23:16 PM 34.6844 -80.6581 202° Southwest 431 496 34,000  Level Jacksonville Center
Wed 12:24:15 PM 34.5686 -80.7089 200° South 454 522 34,000  Level Jacksonville Center
Wed 12:25:15 PM 34.4550 -80.7672 203° Southwest 454 522 34,000  Level Jacksonville Center
Wed 12:26:16 PM 34.3431 -80.8203 201° Southwest 442 509 34,000  Level Jacksonville Center
Wed 12:27:15 PM 34.2375 -80.8731 202° Southwest 430 495 34,000  Level Jacksonville Center
Wed 12:28:15 PM 34.1258 -80.9283 202° Southwest 430 495 34,000  Level Jacksonville Center
Wed 12:29:15 PM 34.0119 -80.9836 202° Southwest 435 501 34,000  Level Jacksonville Center
Wed 12:30:15 PM 33.9228 -81.0256 201° Southwest 435 501 34,000  Level Jacksonville Center
Wed 12:31:15 PM 33.7964 -81.0856 202° Southwest 435 501 34,000  Level Jacksonville Center
Wed 12:32:15 PM 33.6719 -81.1506 203° Southwest 440 506 34,000  Level Jacksonville Center
Wed 12:33:15 PM 33.5600 -81.2053 202° Southwest 440 506 34,000  Level Jacksonville Center
Wed 12:34:15 PM 33.4481 -81.2594 202° Southwest 435 501 34,000  Level Jacksonville Center
Wed 12:35:16 PM 33.3361 -81.3139 202° Southwest 435 501 34,000  Level Jacksonville Center
Wed 12:36:15 PM 33.2219 -81.3681 202° Southwest 435 501 34,000  Level Jacksonville Center
Wed 12:37:15 PM 33.1225 -81.4192 203° Southwest 435 501 34,000  Level Jacksonville Center
Wed 12:38:15 PM 33.0125 -81.4731 202° Southwest 435 501 34,000  Level Jacksonville Center
Wed 12:39:15 PM 32.9022 -81.5269 202° Southwest 430 495 34,000  Level Jacksonville Center
Wed 12:40:15 PM 32.7903 -81.5781 201° Southwest 430 495 34,000  Level Jacksonville Center
Wed 12:41:15 PM 32.6697 -81.6389 203° Southwest 429 494 34,000  Level Jacksonville Center
Wed 12:42:15 PM 32.5575 -81.6947 203° Southwest 429 494 34,000  Level Jacksonville Center
Wed 12:43:15 PM 32.4578 -81.7428 202° Southwest 434 499 34,000  Level Jacksonville Center
Wed 12:44:16 PM 32.3350 -81.8033 203° Southwest 434 499 34,000  Level Jacksonville Center
Wed 12:45:15 PM 32.2208 -81.8564 201° Southwest 434 499 34,000  Level Jacksonville Center
Wed 12:46:15 PM 32.1064 -81.9092 201° Southwest 434 499 34,000  Level Jacksonville Center
Wed 12:47:16 PM 31.9981 -81.9617 202° Southwest 434 499 34,000  Level Jacksonville Center
Wed 12:48:15 PM 31.9175 -82.0481 222° Southwest 423 487 34,000  Level Jacksonville Center
Wed 12:49:15 PM 31.8344 -82.1442 225° Southwest 423 487 34,000  Level Jacksonville Center
Wed 12:50:15 PM 31.7472 -82.2525 227° Southwest 425 489 34,000  Level Jacksonville Center
Wed 12:51:15 PM 31.6642 -82.3531 226° Southwest 425 489 34,000  Level Jacksonville Center
Wed 12:52:15 PM 31.5853 -82.4511 227° Southwest 425 489 34,000  Level Jacksonville Center
Wed 12:53:16 PM 31.5083 -82.5611 231° Southwest 425 489 34,000  Level Jacksonville Center
Wed 12:54:15 PM 31.4481 -82.6783 239° Southwest 425 489 34,000  Level Jacksonville Center
Wed 12:55:15 PM 31.3856 -82.7953 238° Southwest 430 495 34,000  Level Jacksonville Center
Wed 12:56:15 PM 31.3292 -82.9097 240° Southwest 430 495 34,000  Level Jacksonville Center
Wed 12:57:15 PM 31.2542 -83.0264 233° Southwest 430 495 34,000 -150 Level Jacksonville Center
Wed 12:58:15 PM 31.1456 -83.0722 200° South 413 475 33,700 -400 Descending Jacksonville Center
Wed 12:59:15 PM 31.0264 -83.1058 194° South 413 475 33,200 -350 Descending Jacksonville Center
Wed 01:00:15 PM 30.9094 -83.1394 194° South 431 496 33,000 -100 Descending Jacksonville Center
Wed 01:01:15 PM 30.7944 -83.1731 194° South 436 502 33,000  Level Jacksonville Center
Wed 01:02:15 PM 30.6775 -83.2067 194° South 436 502 33,000 -50 Level Jacksonville Center
Wed 01:03:15 PM 30.5606 -83.2422 195° South 436 502 32,900  Descending Jacksonville Center
Wed 01:04:15 PM 30.4433 -83.2781 195° South 436 502 33,000 50 Climbing Jacksonville Center
Wed 01:05:16 PM 30.3264 -83.3114 194° South 430 495 33,000  Level Jacksonville Center
Wed 01:06:15 PM 30.2094 -83.3469 195° South 430 495 33,000  Level Jacksonville Center
Wed 01:07:15 PM 30.0922 -83.3800 194° South 430 495 33,000  Level Jacksonville Center
Wed 01:08:15 PM 29.9753 -83.4153 195° South 430 495 33,000  Level Jacksonville Center
Wed 01:09:15 PM 29.8581 -83.4481 194° South 430 495 33,000  Level Jacksonville Center
Wed 01:10:15 PM 29.7392 -83.4786 193° South 435 501 33,000  Level Jacksonville Center
Wed 01:11:16 PM 29.6325 -83.5089 194° South 435 501 33,000  Level Jacksonville Center
Wed 01:12:15 PM 29.5153 -83.5417 194° South 435 501 33,000 -202 Level Jacksonville Center
Wed 01:13:15 PM 29.3961 -83.5744 193° South 435 501 32,600 -694 Descending Jacksonville Center
Wed 01:14:16 PM 29.2814 -83.5519 170° South 422 486 31,600 -1,100 Descending Jacksonville Center
Wed 01:15:15 PM 29.1669 -83.4919 155° Southeast 422 486 30,400 -1,361 Descending Jacksonville Center
Wed 01:16:15 PM 29.0544 -83.4294 154° Southeast 438 504 28,900 -1,537 Descending Jacksonville Center
Wed 01:17:16 PM 28.9422 -83.3694 155° Southeast 444 511 27,300 -1,350 Descending Jacksonville Center
Wed 01:18:15 PM 28.8317 -83.3167 157° South 437 503 26,200 -1,300 Descending Jacksonville Center
Wed 01:19:16 PM 28.7192 -83.2736 161° South 437 503 24,700 -2,207 Descending Jacksonville Center
Wed 01:21:28 PM 28.4667 -83.1667 160° South 402 463 19,100 -2,406 Descending Tampa TRACON
Wed 01:22:28 PM 28.3667 -83.1333 164° South 385 443 17,000 -2,050 Descending Tampa TRACON
Wed 01:23:28 PM 28.2833 -83.1000 161° South 371 427 15,000 -2,053 Descending Tampa TRACON
Wed 01:24:22 PM 28.1833 -83.0667 164° South 355 409 13,100 -1,789 Descending Tampa TRACON
Wed 01:25:22 PM 28.1000 -83.0333 161° South 339 390 11,600 -1,150 Descending Tampa TRACON
Wed 01:26:22 PM 28.0167 -83.0167 170° South 329 379 10,800 -800 Descending Tampa TRACON
Wed 01:27:22 PM 27.9333 -83.0167 180° South 293 337 10,000 -800 Descending Tampa TRACON
Wed 01:28:22 PM 27.8500 -82.9833 161° South 266 306 9,200 -818 Descending Tampa TRACON
Wed 01:29:34 PM 27.7833 -82.9333 146° Southeast 272 313 8,200 -777 Descending Tampa TRACON
Wed 01:30:41 PM 27.7167 -82.8667 138° Southeast 277 319 7,400 -789 Descending Tampa TRACON
Wed 01:31:28 PM 27.6667 -82.8333 149° Southeast 281 323 6,700 -824 Descending Tampa TRACON
Wed 01:32:23 PM 27.6167 -82.7833 138° Southeast 281 323 6,000 -1,134 Descending Tampa TRACON
Wed 01:33:35 PM 27.5333 -82.7167 145° Southeast 256 295 4,300 -1,636 Descending Tampa TRACON
Wed 01:34:35 PM 27.5000 -82.6667 127° Southeast 238 274 2,400 -1,500 Descending Tampa TRACON
Wed 01:35:35 PM 27.4500 -82.6167 138° Southeast 197 227 1,300 -900 Descending Tampa TRACON
Wed 01:36:35 PM 27.4167 -82.5833 138° Southeast 149 171 600 -700 Descending Tampa TRACON

Login

Don't have an account? Register now (free) for customized features, flight alerts, and more!